createdAt,value
2023-01-30T00:02:29.015Z,100495.78
2023-01-30T00:07:31.013Z,100479.72
2023-01-30T00:12:31.699Z,100484.09
2023-01-30T00:17:32.380Z,100475.78
2023-01-30T00:22:34.360Z,100467.13
2023-01-30T00:27:35.053Z,100446.69
2023-01-30T00:32:37.007Z,100453.59
2023-01-30T00:37:39.011Z,100438.16
2023-01-30T00:42:57.390Z,100433.91
2023-01-30T00:47:58.640Z,100414.34
2023-01-30T00:53:00.688Z,100400.84
2023-01-30T00:58:01.351Z,100398.47
2023-01-30T01:03:02.109Z,100382.94
2023-01-30T01:08:04.473Z,100386.59
2023-01-30T01:13:06.977Z,100392.56
2023-01-30T01:18:09.206Z,100373.13
2023-01-30T01:23:11.882Z,100356.19
2023-01-30T01:28:12.569Z,100351.34
2023-01-30T01:33:13.252Z,100331.63
2023-01-30T01:38:16.610Z,100306.19
2023-01-30T01:43:18.709Z,100311.19
2023-01-30T01:48:23.418Z,100299.31
2023-01-30T01:53:29.398Z,100288.06
2023-01-30T01:58:35.565Z,100268.56
2023-01-30T02:03:39.651Z,100246.13
2023-01-30T02:08:46.525Z,100208.38
2023-01-30T02:13:48.403Z,100180.50
2023-01-30T02:18:49.616Z,100173.53
2023-01-30T02:24:20.731Z,100189.31
2023-01-30T02:29:41.617Z,100177.97
2023-01-30T02:34:52.307Z,100168.72
2023-01-30T02:40:05.546Z,100174.81
2023-01-30T02:45:13.797Z,100182.66
2023-01-30T02:50:22.171Z,100194.19
2023-01-30T02:55:25.790Z,100165.19
2023-01-30T03:00:42.334Z,100153.53
2023-01-30T03:06:02.298Z,100126.34
2023-01-30T03:11:05.553Z,100119.53
2023-01-30T03:16:14.509Z,100109.38
2023-01-30T03:21:16.774Z,100084.72
2023-01-30T03:26:21.107Z,100073.72
2023-01-30T03:31:22.968Z,100038.66
2023-01-30T03:36:25.095Z,100047.19
2023-01-30T03:41:26.052Z,100019.13
2023-01-30T03:46:28.010Z,100017.34
2023-01-30T03:51:30.168Z,99995.13
2023-01-30T03:56:31.669Z,99998.78
2023-01-30T04:01:32.522Z,100016.06
2023-01-30T04:06:36.527Z,100012.84
2023-01-30T04:11:38.803Z,100011.16
2023-01-30T04:16:39.669Z,99989.84
2023-01-30T04:22:10.789Z,99995.88
2023-01-30T04:27:11.511Z,99971.94
2023-01-30T04:32:23.894Z,99965.94
2023-01-30T04:37:26.687Z,99969.44
2023-01-30T04:42:27.755Z,99943.78
2023-01-30T04:47:48.467Z,99946.41
2023-01-30T04:52:50.868Z,99925.81
2023-01-30T04:57:51.835Z,99913.88
2023-01-30T05:02:53.019Z,99906.19
2023-01-30T05:07:55.506Z,99892.59
2023-01-30T05:12:56.178Z,99878.06
2023-01-30T05:17:56.834Z,99869.41
2023-01-30T05:22:58.823Z,99861.72
2023-01-30T05:28:00.129Z,99836.03
2023-01-30T05:33:00.794Z,99838.63
2023-01-30T05:38:03.551Z,99824.91
2023-01-30T05:43:04.257Z,99817.25
2023-01-30T05:48:05.163Z,99824.97
2023-01-30T05:53:07.140Z,99826.72
2023-01-30T05:58:07.792Z,99794.09
2023-01-30T06:03:08.472Z,99794.13
2023-01-30T06:08:10.467Z,99813.06
2023-01-30T06:13:12.241Z,99807.94
2023-01-30T06:18:13.305Z,99803.66
2023-01-30T06:23:15.306Z,99797.66
2023-01-30T06:28:17.567Z,99792.53
2023-01-30T06:33:18.661Z,99783.03
2023-01-30T06:38:21.173Z,99772.78
2023-01-30T06:43:21.902Z,99775.31
2023-01-30T06:48:22.546Z,99757.31
2023-01-30T06:53:30.226Z,99777.84
2023-01-30T06:58:30.982Z,99777.84
2023-01-30T07:03:31.660Z,99792.38
2023-01-30T07:08:33.713Z,99772.59
2023-01-30T07:13:34.397Z,99770.78
2023-01-30T07:18:35.076Z,99771.66
2023-01-30T07:23:37.227Z,99754.56
2023-01-30T07:28:37.919Z,99771.69
2023-01-30T07:33:38.619Z,99752.91
2023-01-30T07:38:40.691Z,99751.22
2023-01-30T07:43:41.336Z,99746.97
2023-01-30T07:48:42.365Z,99753.88
2023-01-30T07:53:44.373Z,99749.59
2023-01-30T07:58:45.152Z,99747.91
2023-01-30T08:03:46.903Z,99741.91
2023-01-30T08:08:48.951Z,99737.63
2023-01-30T08:13:49.786Z,99749.63
2023-01-30T08:18:50.441Z,99710.16
2023-01-30T08:23:52.458Z,99737.63
2023-01-30T08:28:53.110Z,99740.16
2023-01-30T08:33:53.763Z,99729.84
2023-01-30T08:38:55.768Z,99711.84
2023-01-30T08:43:56.473Z,99730.75
2023-01-30T08:48:57.146Z,99713.59
2023-01-30T08:53:59.730Z,99727.31
2023-01-30T08:59:00.798Z,99715.31
2023-01-30T09:04:01.580Z,99716.19
2023-01-30T09:09:03.658Z,99713.63
2023-01-30T09:14:04.375Z,99700.72
2023-01-30T09:19:05.268Z,99694.69
2023-01-30T09:24:07.895Z,99706.69
2023-01-30T09:29:08.627Z,99708.41
2023-01-30T09:34:09.421Z,99711.81
2023-01-30T09:39:11.486Z,99715.25
2023-01-30T09:44:42.260Z,99711.81
2023-01-30T09:49:53.207Z,99691.22
2023-01-30T09:55:00.220Z,99693.72
2023-01-30T10:00:05.647Z,99675.66
2023-01-30T10:05:13.474Z,99674.75
2023-01-30T10:10:22.283Z,99659.16
2023-01-30T10:15:35.848Z,99647.88
2023-01-30T10:20:46.132Z,99632.44
2023-01-30T10:25:51.704Z,99635.81
2023-01-30T10:30:56.397Z,99640.06
2023-01-30T10:36:04.168Z,99646.13
2023-01-30T10:41:14.289Z,99659.88
2023-01-30T10:46:28.368Z,99667.56
2023-01-30T10:51:40.210Z,99645.13
2023-01-30T10:56:50.445Z,99653.78
2023-01-30T11:02:00.489Z,99671.19
2023-01-30T11:07:02.468Z,99664.38
2023-01-30T11:12:04.589Z,99664.41
2023-01-30T11:17:05.404Z,99654.03
2023-01-30T11:22:07.262Z,99666.97
2023-01-30T11:27:13.589Z,99653.31
2023-01-30T11:32:23.006Z,99643.91
2023-01-30T11:37:36.232Z,99649.09
2023-01-30T11:42:45.532Z,99657.69
2023-01-30T11:48:04.731Z,99642.22
2023-01-30T11:53:15.527Z,99637.06
2023-01-30T11:58:17.691Z,99634.50
2023-01-30T12:03:23.337Z,99635.34
2023-01-30T12:08:40.780Z,99599.25
2023-01-30T12:13:45.725Z,99616.44
2023-01-30T12:18:57.136Z,99596.66
2023-01-30T12:24:04.259Z,99585.44
2023-01-30T12:29:22.198Z,99579.19
2023-01-30T12:34:27.233Z,99579.13
2023-01-30T12:39:42.485Z,99587.88
2023-01-30T12:44:59.346Z,99586.97
2023-01-30T12:50:14.065Z,99571.31
2023-01-30T12:55:30.287Z,99564.28
2023-01-30T13:00:46.036Z,99555.97
2023-01-30T13:05:55.232Z,99577.50
2023-01-30T13:11:10.868Z,99569.81
2023-01-30T13:16:24.793Z,99563.75
2023-01-30T13:21:32.714Z,99559.28
2023-01-30T13:26:36.099Z,99554.16
2023-01-30T13:31:43.111Z,99559.16
2023-01-30T13:36:49.038Z,99560.72
2023-01-30T13:41:56.576Z,99560.66
2023-01-30T13:47:09.224Z,99552.97
2023-01-30T13:52:16.825Z,99556.38
2023-01-30T13:57:26.173Z,99540.09
2023-01-30T14:02:28.302Z,99567.53
2023-01-30T14:07:31.881Z,99582.94
2023-01-30T14:12:37.398Z,99573.53
2023-01-30T14:17:39.558Z,99562.38
2023-01-30T14:22:50.860Z,99557.19
2023-01-30T14:27:53.056Z,99566.72
2023-01-30T14:32:56.781Z,99565.00
2023-01-30T14:38:12.877Z,99578.94
2023-01-30T14:43:52.349Z,99551.47
2023-01-30T14:49:01.033Z,99562.78
2023-01-30T14:54:04.874Z,99555.09
2023-01-30T14:59:10.818Z,99563.63
2023-01-30T15:04:17.311Z,99583.44
2023-01-30T15:09:18.839Z,99571.41
2023-01-30T15:14:28.771Z,99551.59
2023-01-30T15:20:13.020Z,99572.31
2023-01-30T15:25:30.801Z,99608.44
2023-01-30T15:30:57.296Z,99589.63
2023-01-30T15:35:59.490Z,99599.13
2023-01-30T15:41:02.948Z,99632.63
2023-01-30T15:46:12.959Z,99643.97
2023-01-30T15:51:17.910Z,99662.91
2023-01-30T15:56:21.400Z,99668.94
2023-01-30T16:01:23.791Z,99672.41
2023-01-30T16:06:32.677Z,99690.44
2023-01-30T16:11:39.552Z,99699.03
2023-01-30T16:16:44.852Z,99680.16
2023-01-30T16:21:47.758Z,99690.44
2023-01-30T16:26:51.349Z,99693.03
2023-01-30T16:31:53.865Z,99693.84
2023-01-30T16:36:56.830Z,99706.72
2023-01-30T16:41:59.056Z,99711.00
2023-01-30T16:47:03.805Z,99695.50
2023-01-30T16:52:14.225Z,99710.13
2023-01-30T16:57:27.298Z,99705.75
2023-01-30T17:02:35.744Z,99715.16
2023-01-30T17:07:38.856Z,99733.22
2023-01-30T17:12:49.397Z,99733.25
2023-01-30T17:17:50.086Z,99747.88
2023-01-30T17:22:53.862Z,99744.47
2023-01-30T17:27:54.700Z,99750.50
2023-01-30T17:32:55.404Z,99737.66
2023-01-30T17:38:05.208Z,99738.50
2023-01-30T17:43:06.774Z,99730.75
2023-01-30T17:48:07.917Z,99772.78
2023-01-30T17:53:09.977Z,99771.97
2023-01-30T17:58:16.957Z,99786.56
2023-01-30T18:03:17.620Z,99787.41
2023-01-30T18:08:19.599Z,99789.16
2023-01-30T18:13:20.497Z,99805.47
2023-01-30T18:18:21.333Z,99808.91
2023-01-30T18:23:23.460Z,99829.50
2023-01-30T18:28:24.208Z,99844.09
2023-01-30T18:33:25.127Z,99855.28
2023-01-30T18:38:28.053Z,99858.69
2023-01-30T18:43:28.717Z,99888.78
2023-01-30T18:48:30.759Z,99888.78
2023-01-30T18:53:35.361Z,99898.22
2023-01-30T18:58:36.409Z,99880.16
2023-01-30T19:03:38.304Z,99938.63
2023-01-30T19:08:40.821Z,99928.31
2023-01-30T19:13:41.661Z,99949.81
2023-01-30T19:18:42.380Z,99942.06
2023-01-30T19:23:44.686Z,99954.09
2023-01-30T19:28:46.206Z,99952.38
2023-01-30T19:33:49.072Z,99972.16
2023-01-30T19:38:52.275Z,100016.88
2023-01-30T19:43:53.577Z,100005.69
2023-01-30T19:48:54.288Z,100021.19
2023-01-30T19:53:58.146Z,100028.91
2023-01-30T19:59:01.140Z,100028.94
2023-01-30T20:04:02.685Z,100049.59
2023-01-30T20:09:06.824Z,100034.94
2023-01-30T20:14:08.025Z,100042.69
2023-01-30T20:19:12.625Z,100062.47
2023-01-30T20:24:15.332Z,100053.84
2023-01-30T20:29:17.597Z,100059.88
2023-01-30T20:34:18.858Z,100071.06
2023-01-30T20:39:21.777Z,100069.34
2023-01-30T20:44:22.580Z,100105.50
2023-01-30T20:49:24.176Z,100076.25
2023-01-30T20:54:26.839Z,100078.84
2023-01-30T20:59:28.632Z,100103.78
2023-01-30T21:04:29.429Z,100113.25
2023-01-30T21:09:31.575Z,100119.25
2023-01-30T21:14:32.241Z,100126.13
2023-01-30T21:19:33.075Z,100133.00
2023-01-30T21:24:35.745Z,100131.28
2023-01-30T21:29:36.885Z,100151.94
2023-01-30T21:34:37.921Z,100145.94
2023-01-30T21:39:57.962Z,100145.91
2023-01-30T21:45:00.505Z,100150.22
2023-01-30T21:50:01.180Z,100157.06
2023-01-30T21:55:03.296Z,100174.09
2023-01-30T22:00:04.219Z,100198.00
2023-01-30T22:05:06.784Z,100198.00
2023-01-30T22:10:09.992Z,100192.84
2023-01-30T22:15:11.319Z,100198.91
2023-01-30T22:20:13.609Z,100222.09
2023-01-30T22:25:15.604Z,100208.41
2023-01-30T22:30:16.931Z,100207.53
2023-01-30T22:35:17.941Z,100227.34
2023-01-30T22:40:20.549Z,100242.84
2023-01-30T22:45:21.479Z,100247.13
2023-01-30T22:50:22.320Z,100271.19
2023-01-30T22:55:24.468Z,100275.50
2023-01-30T23:00:25.209Z,100262.59
2023-01-30T23:05:25.899Z,100264.31
2023-01-30T23:10:27.881Z,100296.09
2023-01-30T23:15:28.547Z,100267.75
2023-01-30T23:20:29.192Z,100260.06
2023-01-30T23:25:31.161Z,100260.88
2023-01-30T23:30:31.921Z,100266.09
2023-01-30T23:35:33.528Z,100300.41
2023-01-30T23:40:35.583Z,100301.94
2023-01-30T23:45:38.180Z,100295.63
2023-01-30T23:50:42.163Z,100280.81
2023-01-30T23:55:52.600Z,100279.13
